WZZ82TG LHBP-LJLJ
Flight info
| Callsign | WZZ82TG |
|---|---|
| Flight time | 0h 42m |
| Altitude | 32000 |
| Route | DUZLA DCT VEBAL DCT MAGAM |
| Aircraft | A320/M-SDE3FGHIRWY/LB1 |
Departure
| Time | 2026-04-21 21:07 |
|---|---|
| Airport | Budapest Liszt Ferenc International Airport (LHBP) |
Arrival
| Time | 2026-04-21 21:49 |
|---|---|
| Airport | Ljubljana Jože Pučnik Airport (LJLJ) |
| Time | Latitude | Longitude | Altitude | Speed | Heading |
|---|---|---|---|---|---|
| 2026-04-21 20:41 | 47.43298 | 19.25704 | 474 ft | 0 kts | 39° |
| 2026-04-21 20:59 | 47.43296 | 19.25701 | 481 ft | 3 kts | 39° |
| 2026-04-21 20:59 | 47.43276 | 19.25676 | 474 ft | 4 kts | 40° |
| 2026-04-21 20:59 | 47.43254 | 19.25652 | 476 ft | 4 kts | 30° |
| 2026-04-21 21:00 | 47.43230 | 19.25638 | 482 ft | 4 kts | 1° |
| 2026-04-21 21:00 | 47.43212 | 19.25645 | 475 ft | 1 kts | 311° |
| 2026-04-21 21:00 | 47.43211 | 19.25645 | 476 ft | 0 kts | 311° |
| 2026-04-21 21:01 | 47.43211 | 19.25646 | 476 ft | 0 kts | 311° |
| 2026-04-21 21:02 | 47.43213 | 19.25642 | 475 ft | 1 kts | 311° |
| 2026-04-21 21:03 | 47.43222 | 19.25628 | 475 ft | 2 kts | 311° |
| 2026-04-21 21:03 | 47.43242 | 19.25594 | 478 ft | 7 kts | 311° |
| 2026-04-21 21:03 | 47.43264 | 19.25558 | 478 ft | 7 kts | 311° |
| 2026-04-21 21:03 | 47.43301 | 19.25497 | 479 ft | 9 kts | 311° |
| 2026-04-21 21:04 | 47.43339 | 19.25385 | 480 ft | 9 kts | 264° |
| 2026-04-21 21:04 | 47.43292 | 19.25320 | 481 ft | 10 kts | 221° |
| 2026-04-21 21:04 | 47.43239 | 19.25240 | 483 ft | 12 kts | 225° |
| 2026-04-21 21:04 | 47.43179 | 19.25161 | 482 ft | 7 kts | 219° |
| 2026-04-21 21:05 | 47.43155 | 19.25131 | 481 ft | 6 kts | 219° |
| 2026-04-21 21:05 | 47.43121 | 19.25089 | 486 ft | 7 kts | 223° |
| 2026-04-21 21:05 | 47.43085 | 19.25031 | 485 ft | 9 kts | 237° |
| 2026-04-21 21:05 | 47.43093 | 19.24945 | 485 ft | 9 kts | 310° |
| 2026-04-21 21:06 | 47.43171 | 19.24823 | 486 ft | 32 kts | 311° |
| 2026-04-21 21:06 | 47.43477 | 19.24319 | 480 ft | 98 kts | 313° |
| 2026-04-21 21:06 | 47.44053 | 19.23399 | 483 ft | 144 kts | 313° |
| 2026-04-21 21:06 | 47.44778 | 19.22254 | 889 ft | 152 kts | 314° |
| 2026-04-21 21:07 | 47.45496 | 19.21104 | 1546 ft | 153 kts | 315° |
| 2026-04-21 21:07 | 47.46226 | 19.19802 | 1923 ft | 173 kts | 312° |
| 2026-04-21 21:07 | 47.46998 | 19.18320 | 2196 ft | 196 kts | 311° |
| 2026-04-21 21:07 | 47.47887 | 19.16602 | 2552 ft | 219 kts | 311° |
| 2026-04-21 21:08 | 47.48827 | 19.14749 | 2970 ft | 240 kts | 304° |
| 2026-04-21 21:08 | 47.49265 | 19.12324 | 3637 ft | 254 kts | 266° |
| 2026-04-21 21:08 | 47.48635 | 19.09819 | 4153 ft | 272 kts | 229° |
| 2026-04-21 21:08 | 47.47101 | 19.08220 | 4998 ft | 273 kts | 198° |
| 2026-04-21 21:09 | 47.45303 | 19.07274 | 5923 ft | 276 kts | 199° |
| 2026-04-21 21:09 | 47.43528 | 19.06138 | 6827 ft | 280 kts | 203° |
| 2026-04-21 21:09 | 47.41766 | 19.04879 | 7690 ft | 283 kts | 206° |
| 2026-04-21 21:09 | 47.39997 | 19.03561 | 8539 ft | 286 kts | 207° |
| 2026-04-21 21:10 | 47.38213 | 19.02226 | 9384 ft | 289 kts | 207° |
| 2026-04-21 21:10 | 47.36407 | 19.00883 | 10213 ft | 292 kts | 208° |
| 2026-04-21 21:10 | 47.34547 | 18.99445 | 10520 ft | 313 kts | 208° |
| 2026-04-21 21:10 | 47.32525 | 18.97948 | 10677 ft | 337 kts | 207° |
| 2026-04-21 21:11 | 47.30357 | 18.96452 | 10858 ft | 347 kts | 206° |
| 2026-04-21 21:11 | 47.28138 | 18.94973 | 11277 ft | 353 kts | 205° |
| 2026-04-21 21:11 | 47.25886 | 18.93484 | 11955 ft | 356 kts | 205° |
| 2026-04-21 21:11 | 47.23617 | 18.91975 | 12658 ft | 359 kts | 206° |
| 2026-04-21 21:12 | 47.21336 | 18.90442 | 13354 ft | 362 kts | 206° |
| 2026-04-21 21:12 | 47.19041 | 18.88885 | 14024 ft | 365 kts | 206° |
| 2026-04-21 21:12 | 47.16730 | 18.87309 | 14614 ft | 368 kts | 207° |
| 2026-04-21 21:12 | 47.14399 | 18.85720 | 15186 ft | 371 kts | 207° |
| 2026-04-21 21:13 | 47.12045 | 18.84117 | 15743 ft | 374 kts | 207° |
| 2026-04-21 21:13 | 47.09672 | 18.82502 | 16294 ft | 378 kts | 207° |
| 2026-04-21 21:13 | 47.07280 | 18.80874 | 16834 ft | 381 kts | 207° |
| 2026-04-21 21:13 | 47.04867 | 18.79231 | 17406 ft | 384 kts | 207° |
| 2026-04-21 21:14 | 47.02432 | 18.77577 | 17970 ft | 388 kts | 207° |
| 2026-04-21 21:14 | 46.99972 | 18.75906 | 18522 ft | 391 kts | 207° |
| 2026-04-21 21:14 | 46.97509 | 18.74193 | 19022 ft | 393 kts | 211° |
| 2026-04-21 21:14 | 46.95224 | 18.72016 | 19528 ft | 392 kts | 221° |
| 2026-04-21 21:15 | 46.93228 | 18.69296 | 20048 ft | 392 kts | 229° |
| 2026-04-21 21:15 | 46.91348 | 18.66397 | 20582 ft | 395 kts | 229° |
| 2026-04-21 21:15 | 46.89444 | 18.63483 | 21084 ft | 397 kts | 229° |
| 2026-04-21 21:15 | 46.87527 | 18.60563 | 21574 ft | 399 kts | 229° |
| 2026-04-21 21:16 | 46.85598 | 18.57634 | 22066 ft | 401 kts | 229° |
| 2026-04-21 21:16 | 46.83651 | 18.54687 | 22528 ft | 404 kts | 229° |
| 2026-04-21 21:16 | 46.81698 | 18.51735 | 22987 ft | 406 kts | 229° |
| 2026-04-21 21:16 | 46.79726 | 18.48760 | 23440 ft | 408 kts | 229° |
| 2026-04-21 21:17 | 46.77745 | 18.45775 | 23858 ft | 411 kts | 229° |
| 2026-04-21 21:17 | 46.75753 | 18.42775 | 24227 ft | 413 kts | 229° |
| 2026-04-21 21:17 | 46.73750 | 18.39760 | 24597 ft | 415 kts | 229° |
| 2026-04-21 21:17 | 46.71737 | 18.36733 | 24957 ft | 417 kts | 229° |
| 2026-04-21 21:18 | 46.69714 | 18.33693 | 25335 ft | 418 kts | 229° |
| 2026-04-21 21:18 | 46.67686 | 18.30643 | 25703 ft | 420 kts | 229° |
| 2026-04-21 21:18 | 46.65647 | 18.27576 | 26068 ft | 422 kts | 229° |
| 2026-04-21 21:18 | 46.63598 | 18.24493 | 26418 ft | 425 kts | 229° |
| 2026-04-21 21:19 | 46.61537 | 18.21401 | 26789 ft | 427 kts | 229° |
| 2026-04-21 21:19 | 46.59463 | 18.18297 | 27133 ft | 429 kts | 229° |
| 2026-04-21 21:19 | 46.57373 | 18.15179 | 27489 ft | 432 kts | 229° |
| 2026-04-21 21:19 | 46.55272 | 18.12048 | 27814 ft | 434 kts | 229° |
| 2026-04-21 21:20 | 46.53160 | 18.08908 | 28171 ft | 436 kts | 229° |
| 2026-04-21 21:20 | 46.51071 | 18.05803 | 28620 ft | 435 kts | 229° |
| 2026-04-21 21:20 | 46.48961 | 18.02666 | 29129 ft | 434 kts | 229° |
| 2026-04-21 21:20 | 46.46859 | 17.99540 | 29622 ft | 432 kts | 229° |
| 2026-04-21 21:21 | 46.44759 | 17.96424 | 30108 ft | 432 kts | 229° |
| 2026-04-21 21:21 | 46.42658 | 17.93318 | 30508 ft | 431 kts | 229° |
| 2026-04-21 21:21 | 46.40559 | 17.90215 | 30888 ft | 431 kts | 229° |
| 2026-04-21 21:21 | 46.38459 | 17.87112 | 31271 ft | 431 kts | 229° |
| 2026-04-21 21:22 | 46.36364 | 17.84019 | 31686 ft | 430 kts | 229° |
| 2026-04-21 21:22 | 46.34269 | 17.80932 | 32041 ft | 430 kts | 229° |
| 2026-04-21 21:22 | 46.30048 | 17.74721 | 32136 ft | 437 kts | 229° |
| 2026-04-21 21:23 | 46.25774 | 17.68440 | 32134 ft | 439 kts | 229° |
| 2026-04-21 21:23 | 46.21489 | 17.62165 | 32112 ft | 439 kts | 230° |
| 2026-04-21 21:24 | 46.17212 | 17.55927 | 32131 ft | 436 kts | 230° |
| 2026-04-21 21:24 | 46.12917 | 17.49666 | 32132 ft | 436 kts | 230° |
| 2026-04-21 21:25 | 46.08654 | 17.43469 | 32133 ft | 436 kts | 230° |
| 2026-04-21 21:25 | 46.04411 | 17.37316 | 32116 ft | 436 kts | 230° |
| 2026-04-21 21:26 | 46.00837 | 17.30466 | 32141 ft | 423 kts | 248° |
| 2026-04-21 21:26 | 45.99178 | 17.22508 | 32149 ft | 413 kts | 266° |
| 2026-04-21 21:27 | 45.99072 | 17.14280 | 32145 ft | 412 kts | 271° |
| 2026-04-21 21:27 | 45.99024 | 17.06036 | 32142 ft | 412 kts | 271° |
| 2026-04-21 21:28 | 45.98954 | 16.97795 | 32141 ft | 413 kts | 271° |
| 2026-04-21 21:29 | 45.98843 | 16.85421 | 32140 ft | 413 kts | 271° |
| 2026-04-21 21:29 | 45.98769 | 16.77162 | 32139 ft | 413 kts | 271° |
| 2026-04-21 21:30 | 45.98686 | 16.68905 | 32138 ft | 413 kts | 271° |
| 2026-04-21 21:30 | 45.98604 | 16.60645 | 32117 ft | 414 kts | 271° |
| 2026-04-21 21:30 | 45.98561 | 16.56507 | 31619 ft | 415 kts | 271° |
| 2026-04-21 21:31 | 45.98513 | 16.52335 | 30707 ft | 419 kts | 271° |
| 2026-04-21 21:31 | 45.98461 | 16.48121 | 29666 ft | 424 kts | 271° |
| 2026-04-21 21:31 | 45.98409 | 16.43878 | 28673 ft | 425 kts | 271° |
| 2026-04-21 21:31 | 45.98356 | 16.39642 | 27996 ft | 420 kts | 271° |
| 2026-04-21 21:32 | 45.98300 | 16.35484 | 27424 ft | 413 kts | 271° |
| 2026-04-21 21:32 | 45.98244 | 16.31391 | 26816 ft | 407 kts | 271° |
| 2026-04-21 21:32 | 45.98188 | 16.27351 | 26206 ft | 402 kts | 271° |
| 2026-04-21 21:32 | 45.98132 | 16.23352 | 25610 ft | 398 kts | 271° |
| 2026-04-21 21:33 | 45.98078 | 16.19398 | 25022 ft | 394 kts | 271° |
| 2026-04-21 21:33 | 45.98026 | 16.15481 | 24443 ft | 391 kts | 270° |
| 2026-04-21 21:33 | 45.97968 | 16.11593 | 23865 ft | 388 kts | 270° |
| 2026-04-21 21:33 | 45.97909 | 16.07724 | 23222 ft | 385 kts | 270° |
| 2026-04-21 21:34 | 45.97849 | 16.03903 | 22655 ft | 381 kts | 270° |
| 2026-04-21 21:34 | 45.97788 | 16.00114 | 22086 ft | 377 kts | 270° |
| 2026-04-21 21:34 | 45.97725 | 15.96363 | 21553 ft | 374 kts | 270° |
| 2026-04-21 21:34 | 45.97664 | 15.92644 | 21014 ft | 371 kts | 271° |
| 2026-04-21 21:35 | 45.97603 | 15.88949 | 20501 ft | 368 kts | 270° |
| 2026-04-21 21:35 | 45.97539 | 15.85294 | 19995 ft | 365 kts | 270° |
| 2026-04-21 21:35 | 45.97474 | 15.81659 | 19509 ft | 362 kts | 270° |
| 2026-04-21 21:35 | 45.97410 | 15.78111 | 19032 ft | 359 kts | 270° |
| 2026-04-21 21:36 | 45.97343 | 15.74497 | 18559 ft | 355 kts | 270° |
| 2026-04-21 21:36 | 45.97309 | 15.70960 | 18045 ft | 352 kts | 275° |
| 2026-04-21 21:36 | 45.97613 | 15.67496 | 17547 ft | 348 kts | 282° |
| 2026-04-21 21:36 | 45.98048 | 15.64086 | 17039 ft | 346 kts | 282° |
| 2026-04-21 21:37 | 45.98472 | 15.60693 | 16526 ft | 344 kts | 282° |
| 2026-04-21 21:37 | 45.98889 | 15.57322 | 16015 ft | 341 kts | 282° |
| 2026-04-21 21:37 | 45.99303 | 15.53969 | 15491 ft | 340 kts | 282° |
| 2026-04-21 21:37 | 45.99713 | 15.50635 | 14971 ft | 338 kts | 282° |
| 2026-04-21 21:38 | 46.00120 | 15.47314 | 14447 ft | 337 kts | 282° |
| 2026-04-21 21:38 | 46.00530 | 15.43974 | 14211 ft | 346 kts | 282° |
| 2026-04-21 21:38 | 46.00948 | 15.40567 | 14182 ft | 354 kts | 282° |
| 2026-04-21 21:38 | 46.01379 | 15.37071 | 14187 ft | 354 kts | 282° |
| 2026-04-21 21:39 | 46.01794 | 15.33671 | 14182 ft | 335 kts | 282° |
| 2026-04-21 21:39 | 46.02181 | 15.30439 | 14076 ft | 321 kts | 282° |
| 2026-04-21 21:39 | 46.02549 | 15.27340 | 13561 ft | 310 kts | 282° |
| 2026-04-21 21:39 | 46.02914 | 15.24299 | 12779 ft | 307 kts | 282° |
| 2026-04-21 21:40 | 46.03279 | 15.21281 | 12017 ft | 305 kts | 282° |
| 2026-04-21 21:40 | 46.03641 | 15.18277 | 11263 ft | 304 kts | 281° |
| 2026-04-21 21:40 | 46.04001 | 15.15274 | 10662 ft | 306 kts | 281° |
| 2026-04-21 21:40 | 46.04364 | 15.12265 | 10271 ft | 305 kts | 281° |
| 2026-04-21 21:41 | 46.04724 | 15.09260 | 9900 ft | 304 kts | 281° |
| 2026-04-21 21:41 | 46.05071 | 15.06339 | 9591 ft | 290 kts | 281° |
| 2026-04-21 21:41 | 46.05410 | 15.03481 | 9207 ft | 289 kts | 281° |
| 2026-04-21 21:41 | 46.05748 | 15.00640 | 8858 ft | 287 kts | 281° |
| 2026-04-21 21:42 | 46.06084 | 14.97810 | 8519 ft | 287 kts | 281° |
| 2026-04-21 21:42 | 46.06416 | 14.94984 | 8157 ft | 285 kts | 281° |
| 2026-04-21 21:42 | 46.06744 | 14.92180 | 7540 ft | 284 kts | 282° |
| 2026-04-21 21:42 | 46.07071 | 14.89377 | 6918 ft | 284 kts | 282° |
| 2026-04-21 21:43 | 46.07397 | 14.86577 | 6296 ft | 285 kts | 282° |
| 2026-04-21 21:43 | 46.07727 | 14.83755 | 5936 ft | 286 kts | 282° |
| 2026-04-21 21:43 | 46.08058 | 14.80916 | 5219 ft | 290 kts | 282° |
| 2026-04-21 21:43 | 46.08386 | 14.78104 | 4893 ft | 278 kts | 284° |
| 2026-04-21 21:44 | 46.08844 | 14.75437 | 4628 ft | 266 kts | 288° |
| 2026-04-21 21:44 | 46.09306 | 14.72897 | 4362 ft | 265 kts | 288° |
| 2026-04-21 21:44 | 46.09852 | 14.70395 | 4094 ft | 258 kts | 298° |
| 2026-04-21 21:44 | 46.10786 | 14.68282 | 3836 ft | 241 kts | 310° |
| 2026-04-21 21:45 | 46.11773 | 14.66375 | 3589 ft | 235 kts | 310° |
| 2026-04-21 21:45 | 46.12724 | 14.64534 | 3558 ft | 222 kts | 311° |
| 2026-04-21 21:45 | 46.13616 | 14.62802 | 3573 ft | 207 kts | 311° |
| 2026-04-21 21:45 | 46.14437 | 14.61206 | 3521 ft | 191 kts | 311° |
| 2026-04-21 21:46 | 46.15193 | 14.59734 | 3339 ft | 176 kts | 312° |
| 2026-04-21 21:46 | 46.15908 | 14.58348 | 3115 ft | 168 kts | 311° |
| 2026-04-21 21:46 | 46.16589 | 14.57024 | 2897 ft | 161 kts | 311° |
| 2026-04-21 21:46 | 46.17248 | 14.55743 | 2678 ft | 157 kts | 310° |
| 2026-04-21 21:47 | 46.17895 | 14.54486 | 2466 ft | 155 kts | 309° |
| 2026-04-21 21:47 | 46.18534 | 14.53242 | 2246 ft | 154 kts | 308° |
| 2026-04-21 21:47 | 46.19166 | 14.52010 | 2015 ft | 152 kts | 308° |
| 2026-04-21 21:47 | 46.19788 | 14.50783 | 1781 ft | 150 kts | 307° |
| 2026-04-21 21:48 | 46.20411 | 14.49579 | 1575 ft | 149 kts | 307° |
| 2026-04-21 21:48 | 46.21026 | 14.48388 | 1384 ft | 147 kts | 306° |
| 2026-04-21 21:48 | 46.21630 | 14.47200 | 1221 ft | 146 kts | 307° |
| 2026-04-21 21:48 | 46.22178 | 14.46146 | 1252 ft | 113 kts | 307° |
| 2026-04-21 21:49 | 46.22440 | 14.45628 | 1255 ft | 80 kts | 306° |
| 2026-04-21 21:49 | 46.22663 | 14.45175 | 1260 ft | 32 kts | 305° |
| 2026-04-21 21:49 | 46.22759 | 14.44981 | 1265 ft | 7 kts | 340° |
| 2026-04-21 21:49 | 46.22759 | 14.45033 | 1270 ft | 8 kts | 134° |
| 2026-04-21 21:50 | 46.22708 | 14.45118 | 1261 ft | 14 kts | 130° |
| 2026-04-21 21:50 | 46.22636 | 14.45248 | 1260 ft | 19 kts | 127° |
| 2026-04-21 21:50 | 46.22613 | 14.45371 | 1263 ft | 10 kts | 53° |
| 2026-04-21 21:50 | 46.22679 | 14.45365 | 1261 ft | 11 kts | 338° |
| 2026-04-21 21:51 | 46.22757 | 14.45333 | 1264 ft | 12 kts | 346° |
| 2026-04-21 21:51 | 46.22846 | 14.45325 | 1262 ft | 14 kts | 18° |
| 2026-04-21 21:51 | 46.22920 | 14.45396 | 1261 ft | 12 kts | 27° |
| 2026-04-21 21:51 | 46.22993 | 14.45458 | 1261 ft | 9 kts | 36° |
| 2026-04-21 21:52 | 46.23000 | 14.45466 | 1261 ft | 0 kts | 37° |